Time;durP1;ratioP1;P1;durP2;ratioP2;P2;SDS_P1;SDS_P2;PMS_P1;PMS_P2;Temp;Humidity;BMP_temperature;BMP_pressure;BME280_temperature;BME280_humidity;BME280_pressure;Samples;Min_cycle;Max_cycle;Signal;HPM_P1;HPM_P2
2022/11/13 00:01:47;;;;;;;3.65;2.42;;;;;;;6.58;76.26;95175.16;5099327;27;20081;-75
2022/11/13 00:04:12;;;;;;;4.38;2.70;;;;;;;6.80;75.90;95206.75;5096615;27;20076;-76
2022/11/13 00:06:37;;;;;;;4.53;2.90;;;;;;;6.86;75.30;95188.03;5099352;27;20034;-76
2022/11/13 00:09:03;;;;;;;4.47;2.92;;;;;;;6.98;74.63;95195.78;5075015;28;20027;-75
2022/11/13 00:11:28;;;;;;;5.47;2.92;;;;;;;7.15;74.67;95201.66;5098737;27;20043;-76
2022/11/13 00:13:54;;;;;;;4.68;2.58;;;;;;;6.95;74.43;95167.16;5097478;27;20496;-76
2022/11/13 00:16:20;;;;;;;4.53;2.83;;;;;;;7.18;73.81;95176.56;5095800;28;20046;-77
2022/11/13 00:18:46;;;;;;;5.57;2.95;;;;;;;7.30;73.63;95196.44;5097064;27;20127;-77
2022/11/13 00:21:15;;;;;;;5.03;3.05;;;;;;;7.26;73.42;95187.44;5095619;27;20674;-76
2022/11/13 00:23:41;;;;;;;7.82;3.00;;;;;;;7.41;73.28;95192.00;5098272;27;20031;-76
2022/11/13 00:26:15;;;;;;;5.03;3.30;;;;;;;7.23;72.91;95173.94;5089441;28;20028;-76
2022/11/13 00:28:41;;;;;;;7.43;3.95;;;;;;;7.33;72.90;95175.81;5099336;27;20077;-77
2022/11/13 00:31:08;;;;;;;8.45;4.18;;;;;;;7.16;73.04;95160.94;5093025;27;20039;-76
2022/11/13 00:33:34;;;;;;;5.20;3.05;;;;;;;7.26;73.06;95181.34;5082061;28;20024;-76
2022/11/13 00:36:21;;;;;;;6.90;3.08;;;;;;;7.43;73.23;95186.44;5097400;27;20085;-75
2022/11/13 00:38:46;;;;;;;4.57;3.25;;;;;;;7.28;72.33;95163.38;5076237;28;20070;-76
2022/11/13 00:41:12;;;;;;;6.90;3.72;;;;;;;7.20;73.08;95156.72;5088807;28;20455;-76
2022/11/13 00:43:38;;;;;;;9.25;4.15;;;;;;;7.45;72.90;95189.63;5096124;27;20552;-78
2022/11/13 00:46:05;;;;;;;6.72;3.28;;;;;;;7.35;73.43;95185.06;5097587;27;20029;-76
2022/11/13 00:48:30;;;;;;;8.45;5.55;;;;;;;7.43;73.08;95181.94;5097605;27;21030;-76
2022/11/13 00:50:56;;;;;;;4.93;3.05;;;;;;;7.10;73.46;95150.56;5096770;27;20390;-77
2022/11/13 00:53:21;;;;;;;8.57;3.92;;;;;;;7.38;73.38;95178.50;5097700;27;20020;-76
2022/11/13 00:55:47;;;;;;;5.78;3.85;;;;;;;7.22;73.29;95164.41;5079487;28;20581;-76
2022/11/13 00:58:13;;;;;;;8.82;3.90;;;;;;;7.38;73.51;95181.94;5098679;27;20026;-77
2022/11/13 01:00:40;;;;;;;6.45;3.97;;;;;;;7.40;73.34;95177.16;5096085;27;20134;-76
2022/11/13 01:03:06;;;;;;;5.25;3.58;;;;;;;7.18;73.88;95160.69;5096823;27;20083;-76
2022/11/13 01:05:36;;;;;;;5.78;3.65;;;;;;;7.16;74.10;95154.84;5095439;27;20428;-76
2022/11/13 01:08:01;;;;;;;6.88;4.55;;;;;;;6.81;74.86;95132.47;5096563;27;20027;-76
2022/11/13 01:10:27;;;;;;;9.38;4.05;;;;;;;6.80;75.55;95156.50;5093729;27;20591;-76
2022/11/13 01:12:52;;;;;;;7.05;4.47;;;;;;;6.81;75.69;95145.69;5081224;28;20028;-77
2022/11/13 01:15:18;;;;;;;7.05;4.13;;;;;;;7.06;75.28;95181.25;5096047;27;20027;-77
2022/11/13 01:17:43;;;;;;;7.07;4.28;;;;;;;6.99;75.28;95170.91;5096088;27;20514;-76
2022/11/13 01:20:09;;;;;;;9.90;6.22;;;;;;;6.85;75.12;95146.75;5095811;27;20089;-76
2022/11/13 01:22:35;;;;;;;8.80;4.93;;;;;;;7.11;75.13;95184.72;5097185;27;20050;-76
2022/11/13 01:25:00;;;;;;;6.75;4.95;;;;;;;6.57;75.13;95102.19;5095926;27;20047;-76
2022/11/13 01:27:26;;;;;;;5.47;3.78;;;;;;;6.95;75.94;95179.59;5097172;27;20028;-76
2022/11/13 01:29:51;;;;;;;9.80;5.70;;;;;;;6.84;75.62;95153.13;5096642;27;20020;-75
2022/11/13 01:32:17;;;;;;;7.60;4.80;;;;;;;6.75;76.66;95170.50;5095559;28;20027;-76
2022/11/13 01:34:42;;;;;;;9.75;4.68;;;;;;;6.84;76.26;95171.63;5097617;27;20031;-76
2022/11/13 01:37:07;;;;;;;8.27;5.18;;;;;;;6.92;76.05;95169.53;5095479;27;20032;-75
2022/11/13 01:39:33;;;;;;;9.40;5.30;;;;;;;6.82;76.54;95155.22;5098294;27;20019;-75
2022/11/13 01:41:59;;;;;;;10.10;4.95;;;;;;;6.54;76.77;95123.06;5094244;27;20097;-76
2022/11/13 01:44:25;;;;;;;6.82;4.47;;;;;;;6.32;76.44;95070.34;5096092;28;20438;-77
2022/11/13 01:46:55;;;;;;;7.72;4.68;;;;;;;6.88;76.50;95168.47;5094922;27;20016;-76
2022/11/13 01:49:29;;;;;;;13.45;5.80;;;;;;;7.06;75.96;95157.44;5079967;28;20024;-76
2022/11/13 01:52:00;;;;;;;8.90;5.10;;;;;;;6.94;75.15;95119.84;5094785;27;20510;-75
2022/11/13 01:54:32;;;;;;;12.60;6.53;;;;;;;7.04;75.07;95146.34;5093633;27;20024;-76
2022/11/13 01:56:59;;;;;;;9.40;5.45;;;;;;;7.10;75.24;95147.94;5096020;27;20073;-76
2022/11/13 01:59:31;;;;;;;11.93;5.78;;;;;;;7.08;75.30;95152.69;5095095;27;20034;-75
2022/11/13 02:01:57;;;;;;;11.43;6.50;;;;;;;7.00;75.40;95150.53;5094646;28;20024;-76
2022/11/13 02:04:23;;;;;;;11.27;6.00;;;;;;;6.57;75.70;95078.41;5096529;28;20050;-76
2022/11/13 02:06:59;;;;;;;10.55;6.78;;;;;;;6.88;75.92;95142.81;5097458;27;20023;-76
2022/11/13 02:09:26;;;;;;;;;;;;;;;6.83;76.22;95151.53;5095154;27;20509;-76
2022/11/13 02:11:53;;;;;;;10.65;7.72;;;;;;;6.73;76.34;95138.25;5095594;27;19912;-76
2022/11/13 02:14:20;;;;;;;14.30;7.25;;;;;;;6.50;76.32;95106.94;5095280;27;20434;-76
2022/11/13 02:16:49;;;;;;;10.82;6.75;;;;;;;6.80;76.23;95156.50;5096142;27;20466;-75
2022/11/13 02:19:31;;;;;;;12.35;6.72;;;;;;;6.74;76.74;95146.97;5096742;27;20034;-76
2022/11/13 02:22:15;;;;;;;10.02;5.50;;;;;;;6.82;76.52;95155.22;5093594;27;20036;-76
2022/11/13 02:24:43;;;;;;;10.63;6.05;;;;;;;6.59;76.65;95131.81;5084372;28;20442;-75
2022/11/13 02:27:16;;;;;;;12.68;6.30;;;;;;;6.80;76.79;95156.50;5080571;28;20031;-75
2022/11/13 02:29:42;;;;;;;11.23;5.72;;;;;;;6.67;76.16;95136.63;5095006;27;20023;-76
2022/11/13 02:32:07;;;;;;;8.90;5.35;;;;;;;6.73;76.12;95138.25;5094270;27;20042;-76
2022/11/13 02:34:33;;;;;;;9.52;5.97;;;;;;;6.64;76.11;95126.56;5096412;27;20379;-76
2022/11/13 02:36:58;;;;;;;9.70;6.03;;;;;;;6.76;76.37;95150.94;5091674;27;20023;-77
2022/11/13 02:39:24;;;;;;;11.18;6.85;;;;;;;6.67;76.17;95141.91;5095316;27;20097;-76
2022/11/13 02:41:49;;;;;;;11.60;7.43;;;;;;;6.75;76.23;95151.22;5094160;27;20024;-75
2022/11/13 02:44:14;;;;;;;10.60;6.55;;;;;;;6.72;76.53;95149.88;5094526;27;20033;-76
2022/11/13 02:46:40;;;;;;;17.02;7.22;;;;;;;6.76;76.15;95145.66;5095954;27;20150;-75
2022/11/13 02:49:06;;;;;;;11.73;7.45;;;;;;;6.69;75.62;95134.53;5095277;27;20038;-77
2022/11/13 02:51:32;;;;;;;13.40;7.20;;;;;;;6.57;75.54;95115.41;5094723;27;20101;-77
2022/11/13 02:53:57;;;;;;;12.15;7.47;;;;;;;6.50;76.00;95114.06;5092715;28;20074;-77
2022/11/13 02:56:22;;;;;;;14.00;7.30;;;;;;;6.54;76.12;95120.41;5093844;28;20024;-77
2022/11/13 02:58:48;;;;;;;14.48;8.23;;;;;;;6.57;76.37;95120.69;5078851;28;20028;-76
2022/11/13 03:01:13;;;;;;;16.45;7.72;;;;;;;6.62;75.96;95139.22;5093856;27;20012;-77
2022/11/13 03:03:39;;;;;;;14.18;8.52;;;;;;;6.40;76.25;95117.44;5073524;28;20026;-76
2022/11/13 03:06:04;;;;;;;14.43;7.93;;;;;;;6.29;76.89;95108.66;5095370;27;20056;-76
2022/11/13 03:08:30;;;;;;;14.52;7.72;;;;;;;6.37;77.00;95126.66;5095450;27;20029;-76
2022/11/13 03:10:56;;;;;;;12.85;7.25;;;;;;;6.45;76.94;95138.63;5095502;28;20023;-75
2022/11/13 03:13:21;;;;;;;13.90;7.82;;;;;;;6.49;77.02;95138.88;5096242;27;20028;-77
2022/11/13 03:15:47;;;;;;;14.35;8.32;;;;;;;6.46;76.66;95132.25;5091280;28;20035;-76
2022/11/13 03:18:13;;;;;;;16.58;8.35;;;;;;;6.46;76.44;95115.63;5094760;28;20031;-75
2022/11/13 03:20:41;;;;;;;17.23;9.65;;;;;;;6.59;76.96;95142.41;5094991;28;20043;-76
2022/11/13 03:23:07;;;;;;;13.63;8.77;;;;;;;6.43;76.74;95135.41;5094621;28;20034;-76
2022/11/13 03:25:33;;;;;;;13.00;8.18;;;;;;;6.49;76.35;95131.75;5093565;28;20401;-75
2022/11/13 03:27:59;;;;;;;16.67;8.77;;;;;;;6.62;76.35;95149.00;5093669;28;20039;-76
2022/11/13 03:30:26;;;;;;;15.52;8.20;;;;;;;6.51;76.44;95144.69;5092845;28;20431;-75
2022/11/13 03:32:56;;;;;;;15.65;8.00;;;;;;;6.71;75.90;95150.13;5095613;28;20022;-76
2022/11/13 03:35:22;;;;;;;11.40;8.45;;;;;;;6.74;75.81;95158.34;5093052;28;20034;-77
2022/11/13 03:37:49;;;;;;;14.95;8.55;;;;;;;6.68;75.45;95122.34;5075111;28;20072;-76
2022/11/13 03:40:14;;;;;;;15.40;8.80;;;;;;;6.66;75.55;95147.44;5091224;28;20031;-76
2022/11/13 03:42:40;;;;;;;15.27;8.27;;;;;;;6.63;75.82;95140.03;5090624;28;20068;-77
2022/11/13 03:45:05;;;;;;;12.65;7.97;;;;;;;6.49;75.69;95138.88;5091380;28;20215;-76
2022/11/13 03:47:31;;;;;;;17.40;7.45;;;;;;;6.49;75.75;95134.41;5093466;28;20152;-77
2022/11/13 03:49:56;;;;;;;14.70;7.80;;;;;;;6.47;76.02;95125.91;5083440;28;20437;-78
2022/11/13 03:52:22;;;;;;;16.15;7.93;;;;;;;6.66;75.81;95145.59;5092528;28;20487;-77
2022/11/13 03:54:47;;;;;;;12.93;6.88;;;;;;;6.64;75.65;95134.50;5094123;28;20082;-77
2022/11/13 03:57:13;;;;;;;12.40;7.65;;;;;;;6.73;74.91;95132.16;5082560;28;20019;-78
2022/11/13 03:59:39;;;;;;;13.45;7.65;;;;;;;6.73;75.07;95138.25;5094427;28;20024;-78
2022/11/13 04:02:04;;;;;;;16.05;8.52;;;;;;;6.45;75.71;95112.19;5093180;28;20055;-78
2022/11/13 04:04:30;;;;;;;13.65;7.72;;;;;;;6.83;75.90;95161.31;5083510;28;21074;-77
2022/11/13 04:06:55;;;;;;;12.15;7.30;;;;;;;6.88;75.71;95163.19;5090089;28;20553;-79
2022/11/13 04:09:20;;;;;;;12.43;8.10;;;;;;;6.71;76.00;95144.81;5095027;28;20031;-77
2022/11/13 04:11:46;;;;;;;15.18;8.23;;;;;;;6.52;76.00;95125.16;5073257;28;20076;-77
2022/11/13 04:14:11;;;;;;;15.10;7.93;;;;;;;6.46;76.34;95108.47;5094048;28;20044;-78
2022/11/13 04:16:37;;;;;;;12.75;7.22;;;;;;;6.65;76.22;95146.66;5093707;28;20526;-78
2022/11/13 04:19:02;;;;;;;16.23;8.25;;;;;;;6.65;76.35;95141.34;5093768;28;20036;-77
2022/11/13 04:21:28;;;;;;;17.55;8.23;;;;;;;6.63;76.15;95124.97;5094119;28;20055;-77
2022/11/13 04:23:53;;;;;;;12.77;8.13;;;;;;;6.55;76.11;95108.81;5072688;28;20020;-77
2022/11/13 04:26:19;;;;;;;15.10;8.48;;;;;;;6.77;76.03;95141.97;5096023;27;20425;-77
2022/11/13 04:28:44;;;;;;;14.82;8.65;;;;;;;6.76;76.24;95143.00;5092769;27;20107;-77
2022/11/13 04:31:10;;;;;;;17.75;7.88;;;;;;;6.81;75.91;95145.69;5095098;27;20599;-78
2022/11/13 04:33:35;;;;;;;14.27;7.55;;;;;;;6.86;75.84;95156.28;5094428;27;20815;-77
2022/11/13 04:36:01;;;;;;;18.10;8.57;;;;;;;6.98;75.82;95157.94;5099177;27;20047;-77
2022/11/13 04:38:26;;;;;;;16.27;9.20;;;;;;;6.82;75.67;95120.84;5096108;27;20024;-77
2022/11/13 04:42:47;;;;;;;14.30;7.72;;;;;;;6.68;75.75;95127.66;5097439;27;20032;-77
2022/11/13 04:43:37;;;;;;;;;;;;;;;6.74;76.61;95157.56;5096652;27;20038;-76
2022/11/13 04:46:03;;;;;;;14.25;8.30;;;;;;;6.68;76.52;95132.94;5095415;27;19931;-76
2022/11/13 04:48:28;;;;;;;16.23;8.68;;;;;;;6.62;76.08;95118.09;5097917;27;20050;-77
2022/11/13 04:50:53;;;;;;;18.63;10.13;;;;;;;6.83;75.90;95146.25;5084850;28;20575;-76
2022/11/13 04:53:19;;;;;;;16.20;8.00;;;;;;;7.01;75.96;95157.41;5099205;27;20035;-77
2022/11/13 04:55:44;;;;;;;18.10;10.00;;;;;;;6.93;75.26;95134.09;5095733;27;20015;-77
2022/11/13 04:58:10;;;;;;;15.80;9.25;;;;;;;6.93;75.49;95144.69;5096679;27;20030;-77
2022/11/13 05:00:35;;;;;;;19.00;10.27;;;;;;;6.79;75.43;95121.38;5095083;27;20031;-77
2022/11/13 05:03:00;;;;;;;17.27;9.68;;;;;;;7.02;75.34;95151.06;5098805;27;20024;-77
2022/11/13 05:05:26;;;;;;;17.65;9.18;;;;;;;7.12;75.00;95164.34;5094661;27;20632;-77
2022/11/13 05:07:51;;;;;;;16.83;8.68;;;;;;;6.84;75.12;95139.09;5096546;27;20031;-77
2022/11/13 05:10:17;;;;;;;16.15;9.27;;;;;;;6.95;74.79;95148.66;5080529;27;20133;-77
2022/11/13 05:12:42;;;;;;;15.52;9.27;;;;;;;6.92;75.06;95132.50;5095426;27;20020;-78
2022/11/13 05:15:08;;;;;;;18.55;9.88;;;;;;;6.94;75.52;95162.97;5098147;27;20063;-77
2022/11/13 05:17:33;;;;;;;21.70;10.50;;;;;;;6.83;75.52;95140.94;5096494;27;20024;-78
2022/11/13 05:19:58;;;;;;;23.90;10.50;;;;;;;6.98;75.43;95160.59;5097459;27;20078;-77
2022/11/13 05:22:24;;;;;;;24.38;13.15;;;;;;;6.93;74.99;95144.69;5095335;27;20491;-78
2022/11/13 05:24:49;;;;;;;23.50;12.43;;;;;;;7.10;74.90;95169.09;5095382;27;20043;-77
2022/11/13 05:27:15;;;;;;;23.77;11.23;;;;;;;7.04;74.54;95152.44;5077951;28;20037;-78
2022/11/13 05:29:40;;;;;;;18.38;9.98;;;;;;;6.97;75.07;95140.47;5097905;27;20078;-77
2022/11/13 05:32:05;;;;;;;17.70;10.48;;;;;;;7.14;74.92;95162.25;5095402;27;20028;-78
2022/11/13 05:34:31;;;;;;;20.50;11.15;;;;;;;7.23;74.50;95166.78;5098363;27;20020;-77
2022/11/13 05:36:56;;;;;;;22.35;11.93;;;;;;;7.03;74.24;95126.22;5094310;27;20589;-77
2022/11/13 05:39:21;;;;;;;21.27;11.40;;;;;;;7.37;73.72;95171.59;5097813;27;20023;-78
2022/11/13 05:41:47;;;;;;;21.35;11.50;;;;;;;7.33;73.11;95134.28;5093673;27;20752;-77
2022/11/13 05:44:12;;;;;;;19.95;11.45;;;;;;;7.53;72.82;95173.25;5077480;28;20027;-78
2022/11/13 05:46:38;;;;;;;22.83;12.95;;;;;;;7.64;72.40;95178.28;5097828;27;20027;-77
2022/11/13 05:49:04;;;;;;;20.80;11.73;;;;;;;7.64;71.78;95154.47;5096126;27;20019;-78
2022/11/13 05:51:31;;;;;;;19.35;11.60;;;;;;;7.71;71.17;95156.88;5076442;28;20025;-77
2022/11/13 05:53:58;;;;;;;21.55;12.20;;;;;;;7.99;70.94;95184.75;5093645;27;20104;-78
2022/11/13 05:56:32;;;;;;;21.15;11.52;;;;;;;7.81;71.31;95187.91;5077010;27;20028;-78
2022/11/13 05:58:59;;;;;;;19.75;10.70;;;;;;;7.46;71.51;95152.31;5092513;27;20028;-77
2022/11/13 06:01:28;;;;;;;24.70;13.18;;;;;;;7.61;71.60;95178.81;5098552;27;20567;-78
2022/11/13 06:03:55;;;;;;;20.30;11.18;;;;;;;7.60;71.54;95187.81;5096664;27;20531;-77
2022/11/13 06:06:22;;;;;;;19.88;11.35;;;;;;;7.61;71.58;95193.91;5096925;27;20797;-77
2022/11/13 06:08:48;;;;;;;22.45;12.60;;;;;;;7.24;72.11;95146.38;5075682;28;20029;-76
2022/11/13 06:11:17;;;;;;;25.10;12.57;;;;;;;7.45;72.32;95201.00;5095278;27;20487;-77
2022/11/13 06:13:43;;;;;;;22.90;12.82;;;;;;;7.27;73.11;95199.63;5096331;27;20038;-77
2022/11/13 06:16:11;;;;;;;20.63;12.13;;;;;;;7.20;73.01;95185.81;5094654;27;20036;-77
2022/11/13 06:18:38;;;;;;;26.75;13.13;;;;;;;7.21;73.63;95207.78;5091602;28;20028;-76
2022/11/13 06:21:09;;;;;;;21.83;12.80;;;;;;;7.15;73.76;95206.16;5093561;28;20050;-77
2022/11/13 06:23:36;;;;;;;21.48;11.95;;;;;;;6.91;73.60;95149.44;5093865;27;20028;-77
2022/11/13 06:26:04;;;;;;;20.23;11.57;;;;;;;7.14;73.88;95200.06;5090517;27;20027;-77
2022/11/13 06:28:29;;;;;;;23.90;11.02;;;;;;;6.74;74.23;95153.06;5096069;27;20039;-77
2022/11/13 06:30:55;;;;;;;19.15;11.57;;;;;;;6.92;74.58;95177.47;5093714;27;20068;-77
2022/11/13 06:33:20;;;;;;;18.20;10.70;;;;;;;7.00;73.86;95177.78;5094892;28;20035;-77
2022/11/13 06:35:46;;;;;;;21.63;12.02;;;;;;;7.04;73.89;95188.66;5095426;27;20510;-77
2022/11/13 06:38:11;;;;;;;19.23;10.43;;;;;;;6.67;73.96;95133.97;5091832;27;20508;-77
2022/11/13 06:40:38;;;;;;;19.30;10.57;;;;;;;6.73;74.33;95175.25;5091411;27;20621;-77
2022/11/13 06:43:03;;;;;;;20.58;12.18;;;;;;;7.00;74.31;95203.44;5081398;28;20039;-77
2022/11/13 06:45:29;;;;;;;26.60;12.13;;;;;;;6.93;74.25;95189.66;5093389;27;20168;-78
2022/11/13 06:47:54;;;;;;;19.40;10.13;;;;;;;6.92;74.10;95169.53;5094997;27;20035;-77
2022/11/13 06:50:20;;;;;;;22.33;11.40;;;;;;;6.69;74.21;95141.66;5091574;27;20400;-76
2022/11/13 06:52:45;;;;;;;20.50;11.85;;;;;;;7.13;73.95;95184.47;5090229;28;20107;-78
2022/11/13 06:55:10;;;;;;;19.98;11.27;;;;;;;7.38;73.64;95203.09;5092138;27;20476;-78
2022/11/13 06:57:36;;;;;;;24.35;11.65;;;;;;;7.34;73.04;95188.78;5073364;28;20200;-76
2022/11/13 07:00:01;;;;;;;23.95;13.00;;;;;;;7.44;72.54;95182.72;5089514;27;20032;-76
2022/11/13 07:02:26;;;;;;;18.88;10.82;;;;;;;7.58;72.13;95200.50;5088451;27;20056;-76
2022/11/13 07:04:52;;;;;;;27.60;13.25;;;;;;;7.45;71.53;95148.06;5070295;28;20020;-76
2022/11/13 07:07:17;;;;;;;19.30;10.32;;;;;;;7.54;70.96;95166.88;5083486;28;20639;-76
2022/11/13 07:09:43;;;;;;;21.92;9.75;;;;;;;7.64;71.39;95178.28;5069905;28;20028;-76
2022/11/13 07:12:08;;;;;;;21.15;10.88;;;;;;;7.57;70.99;95177.75;5090513;28;20554;-77
2022/11/13 07:14:33;;;;;;;24.90;12.02;;;;;;;7.44;71.24;95162.34;5094250;28;20032;-75
2022/11/13 07:16:59;;;;;;;20.08;10.55;;;;;;;7.51;71.43;95193.88;5089904;27;20503;-76
2022/11/13 07:19:24;;;;;;;21.27;12.20;;;;;;;7.59;71.56;95196.81;5080908;28;20020;-76
2022/11/13 07:21:49;;;;;;;19.70;10.65;;;;;;;7.59;71.48;95196.81;5075251;28;20040;-77
2022/11/13 07:24:15;;;;;;;25.40;12.68;;;;;;;7.73;71.31;95204.31;5092830;28;20088;-76
2022/11/13 07:26:40;;;;;;;23.95;11.88;;;;;;;7.83;71.32;95206.97;5094845;28;20210;-76
2022/11/13 07:29:06;;;;;;;21.13;11.60;;;;;;;7.80;71.12;95215.44;5083899;28;20396;-77
2022/11/13 07:31:31;;;;;;;21.92;11.10;;;;;;;7.61;71.04;95155.00;5079953;28;20130;-76
2022/11/13 07:33:56;;;;;;;25.75;12.85;;;;;;;7.96;70.29;95195.88;5091286;28;20597;-76
2022/11/13 07:36:22;;;;;;;22.20;11.35;;;;;;;8.44;69.84;95223.75;5094281;28;20028;-77
2022/11/13 07:38:47;;;;;;;25.08;12.40;;;;;;;8.52;67.95;95220.56;5077550;28;20024;-76
2022/11/13 07:41:13;;;;;;;19.98;11.00;;;;;;;8.73;67.88;95200.13;5087912;28;20031;-77
2022/11/13 07:43:38;;;;;;;19.58;11.60;;;;;;;9.06;66.78;95215.44;5062603;28;20044;-76
2022/11/13 07:46:03;;;;;;;21.88;11.73;;;;;;;9.20;65.90;95203.22;5082819;28;20089;-76
2022/11/13 07:48:29;;;;;;;22.58;11.70;;;;;;;9.34;63.77;95212.22;5091283;28;20016;-76
2022/11/13 07:50:58;;;;;;;20.63;11.63;;;;;;;9.17;63.89;95182.53;5090505;28;20598;-76
2022/11/13 07:53:23;;;;;;;19.92;10.98;;;;;;;9.43;62.82;95207.94;5090400;28;20106;-77
2022/11/13 07:55:49;;;;;;;20.77;11.00;;;;;;;9.06;63.79;95183.59;5073093;28;20024;-78
2022/11/13 07:58:14;;;;;;;20.58;12.10;;;;;;;9.17;63.55;95179.88;5089587;28;20053;-76
2022/11/13 08:00:40;;;;;;;20.70;11.23;;;;;;;8.81;64.01;95170.38;5094376;28;20032;-76
2022/11/13 08:03:08;;;;;;;25.00;12.35;;;;;;;8.69;64.91;95177.84;5093995;27;20051;-76
2022/11/13 08:05:33;;;;;;;20.98;11.38;;;;;;;8.50;66.54;95215.53;5092222;27;20463;-76
2022/11/13 08:07:59;;;;;;;23.25;10.98;;;;;;;8.54;66.31;95213.94;5093200;27;20015;-77
2022/11/13 08:10:24;;;;;;;21.45;12.15;;;;;;;8.65;66.36;95208.63;5095046;27;20027;-77
2022/11/13 08:12:57;;;;;;;26.88;12.88;;;;;;;8.49;66.78;95215.78;5077280;27;20015;-76
2022/11/13 08:15:23;;;;;;;20.75;10.98;;;;;;;8.23;66.62;95188.47;5093595;27;20479;-75
2022/11/13 08:17:59;;;;;;;21.98;12.05;;;;;;;8.13;66.49;95183.97;5073595;28;20019;-75
2022/11/13 08:20:27;;;;;;;26.33;12.68;;;;;;;8.20;67.37;95207.56;5093731;27;20458;-76
2022/11/13 08:22:55;;;;;;;21.60;12.73;;;;;;;8.24;67.68;95210.47;5092903;27;20054;-76
2022/11/13 08:25:21;;;;;;;21.70;11.30;;;;;;;8.02;67.84;95208.84;5076604;28;20015;-76
2022/11/13 08:27:46;;;;;;;21.88;11.60;;;;;;;8.11;68.35;95204.66;5074474;28;20380;-76
2022/11/13 08:30:12;;;;;;;21.58;11.95;;;;;;;7.80;67.99;95155.31;5093945;27;20020;-75
2022/11/13 08:32:38;;;;;;;21.77;11.63;;;;;;;8.08;67.01;95183.16;5075654;27;20531;-75
2022/11/13 08:35:04;;;;;;;22.17;13.68;;;;;;;7.96;66.08;95191.38;5092785;27;20410;-75
2022/11/13 08:37:29;;;;;;;21.63;11.90;;;;;;;8.21;66.74;95197.75;5091841;27;20036;-76
2022/11/13 08:39:54;;;;;;;20.70;12.48;;;;;;;8.35;66.47;95204.13;5093595;27;20127;-76
2022/11/13 08:42:20;;;;;;;26.75;12.68;;;;;;;8.11;65.39;95190.59;5089341;28;20036;-76
2022/11/13 08:44:45;;;;;;;21.48;12.82;;;;;;;8.28;65.96;95212.34;5090853;28;20586;-77
2022/11/13 08:47:11;;;;;;;21.40;11.63;;;;;;;8.33;65.92;95207.03;5090326;27;20475;-77
2022/11/13 08:49:36;;;;;;;21.10;12.98;;;;;;;8.29;66.28;95179.47;5089160;27;20036;-75
2022/11/13 08:52:02;;;;;;;21.13;11.90;;;;;;;8.30;66.13;95207.56;5088754;27;20031;-77
2022/11/13 08:54:27;;;;;;;25.30;13.95;;;;;;;8.41;66.52;95235.66;5070801;28;20030;-76
2022/11/13 08:56:53;;;;;;;21.73;12.75;;;;;;;8.58;65.69;95232.75;5086982;27;20020;-76
2022/11/13 08:59:18;;;;;;;24.27;13.35;;;;;;;8.78;65.28;95226.66;5068566;28;20024;-77
2022/11/13 09:01:43;;;;;;;24.70;13.82;;;;;;;8.27;64.83;95141.03;5087312;27;20051;-76
2022/11/13 09:04:09;;;;;;;26.65;12.65;;;;;;;8.56;65.31;95221.59;5089110;27;20028;-77
2022/11/13 09:06:34;;;;;;;38.08;14.63;;;;;;;8.29;64.86;95174.16;5086271;27;20047;-76
2022/11/13 09:08:59;;;;;;;25.38;13.77;;;;;;;8.62;65.02;95209.16;5088433;27;20077;-76
2022/11/13 09:11:28;;;;;;;23.00;13.98;;;;;;;8.69;64.26;95223.75;5089499;27;20351;-77
2022/11/13 09:13:53;;;;;;;25.38;14.07;;;;;;;8.85;64.63;95220.00;5085673;27;20089;-76
2022/11/13 09:16:19;;;;;;;28.20;12.95;;;;;;;9.06;63.67;95223.41;5088960;27;20027;-76
2022/11/13 09:18:48;;;;;;;24.75;13.80;;;;;;;9.02;62.05;95204.59;5085059;28;20277;-76
2022/11/13 09:21:14;;;;;;;21.40;12.20;;;;;;;8.83;61.18;95231.94;5087975;27;20408;-76
2022/11/13 09:23:39;;;;;;;21.25;10.48;;;;;;;8.50;61.86;95201.47;5085925;27;20027;-76
2022/11/13 09:26:04;;;;;;;23.65;12.68;;;;;;;8.80;61.99;95192.69;5090683;27;20251;-75
2022/11/13 09:28:30;;;;;;;20.98;12.77;;;;;;;8.93;63.03;95198.25;5090842;27;20027;-76
2022/11/13 09:30:55;;;;;;;23.52;13.13;;;;;;;8.84;61.67;95222.94;5092367;27;20513;-76
2022/11/13 09:33:20;;;;;;;21.15;12.18;;;;;;;8.75;61.35;95182.09;5093913;27;20024;-75
2022/11/13 09:35:46;;;;;;;21.30;12.15;;;;;;;9.07;61.49;95210.94;5091296;27;20026;-76
2022/11/13 09:38:13;;;;;;;24.77;13.95;;;;;;;8.77;61.67;95180.75;5065967;28;20024;-77
2022/11/13 09:40:49;;;;;;;21.30;13.65;;;;;;;9.10;60.99;95199.78;5067307;28;20024;-78
2022/11/13 09:43:27;;;;;;;24.50;12.75;;;;;;;8.99;62.32;95199.81;5088655;27;20020;-75
2022/11/13 09:45:57;;;;;;;21.35;13.23;;;;;;;9.10;62.67;95205.88;5085588;28;20576;-76
2022/11/13 09:48:31;;;;;;;32.08;16.17;;;;;;;9.15;64.26;95197.94;5093306;27;20077;-75
2022/11/13 09:51:02;;;;;;;20.98;12.48;;;;;;;9.13;62.60;95201.94;5089929;27;20024;-76
2022/11/13 09:53:33;;;;;;;22.08;12.45;;;;;;;9.06;62.35;95188.09;5071475;28;20027;-76
2022/11/13 09:56:41;;;;;;;27.88;14.77;;;;;;;9.19;62.96;95185.72;5088498;27;20134;-76
2022/11/13 09:59:22;;;;;;;24.98;14.93;;;;;;;9.03;62.68;95154.97;5087645;27;20047;-80
2022/11/13 10:02:06;;;;;;;24.23;13.52;;;;;;;9.18;61.56;95191.31;5088748;27;20115;-76
2022/11/13 10:04:47;;;;;;;21.92;12.63;;;;;;;9.15;61.59;95175.91;5088461;28;20503;-77
2022/11/13 10:07:25;;;;;;;30.10;14.10;;;;;;;9.33;60.97;95194.72;5089824;27;20038;-75
2022/11/13 10:10:15;;;;;;;21.23;13.30;;;;;;;9.33;60.14;95185.94;5072985;28;20579;-76
2022/11/13 10:12:43;;;;;;;18.77;11.32;;;;;;;9.06;60.48;95156.25;5088959;27;20020;-75
2022/11/13 10:15:10;;;;;;;20.23;11.60;;;;;;;9.37;60.72;95190.44;5072434;27;20530;-75
2022/11/13 10:17:40;;;;;;;18.10;11.50;;;;;;;9.40;59.91;95165.19;5085153;28;22341;-74
2022/11/13 10:20:20;;;;;;;20.35;12.45;;;;;;;9.58;59.98;95187.69;5086867;27;20181;-75
2022/11/13 10:23:03;;;;;;;26.77;13.15;;;;;;;9.76;59.80;95187.88;5086333;27;20020;-76
2022/11/13 10:25:34;;;;;;;22.92;13.20;;;;;;;9.71;59.08;95182.56;5087405;27;20039;-76
2022/11/13 10:28:07;;;;;;;22.73;12.60;;;;;;;9.82;59.03;95180.66;5069256;28;20059;-75
2022/11/13 10:33:56;;;;;;;21.27;12.95;;;;;;;9.81;58.12;95173.75;5087173;28;20589;-76
2022/11/13 10:36:49;;;;;;;22.20;13.18;;;;;;;9.82;58.87;95180.66;5092431;27;20023;-76
2022/11/13 10:39:15;;;;;;;24.88;13.43;;;;;;;9.69;58.73;95150.16;5074320;28;20031;-76
2022/11/13 10:41:49;;;;;;;19.92;12.23;;;;;;;9.66;58.65;95149.94;5086867;27;20148;-76
2022/11/13 10:44:25;;;;;;;22.17;11.90;;;;;;;9.92;58.38;95169.97;5089314;27;20035;-76
2022/11/13 10:46:50;;;;;;;22.98;12.90;;;;;;;9.82;57.80;95123.00;5078057;28;20959;-76
2022/11/13 10:49:15;;;;;;;26.48;13.07;;;;;;;10.26;57.51;95159.38;5088419;27;20095;-76
2022/11/13 10:51:41;;;;;;;22.88;12.63;;;;;;;10.35;56.87;95135.63;5088170;27;20107;-76
2022/11/13 10:54:31;;;;;;;21.90;13.75;;;;;;;10.50;56.27;95154.94;5086463;28;20030;-77
2022/11/13 10:57:03;;;;;;;21.70;12.98;;;;;;;10.11;56.21;95096.47;5089338;27;20364;-77
2022/11/13 10:59:40;;;;;;;22.60;13.02;;;;;;;10.26;56.29;95138.09;5088444;27;20024;-76
2022/11/13 11:02:24;;;;;;;22.50;13.65;;;;;;;10.16;56.79;95154.91;5086066;27;20032;-76
2022/11/13 11:05:21;;;;;;;22.20;13.13;;;;;;;9.93;57.29;95160.91;5088092;27;20517;-76
2022/11/13 11:07:47;;;;;;;20.73;12.55;;;;;;;9.50;57.67;95104.06;5082788;27;20996;-76
2022/11/13 11:10:20;;;;;;;21.13;13.13;;;;;;;9.86;58.02;95155.13;5088526;27;20019;-76
2022/11/13 11:12:58;;;;;;;20.35;12.30;;;;;;;9.63;58.56;95155.81;5071534;28;20505;-75
2022/11/13 11:15:31;;;;;;;24.55;14.15;;;;;;;9.59;59.33;95152.88;5087926;28;20452;-76
2022/11/13 11:18:01;;;;;;;21.92;13.18;;;;;;;9.59;58.75;95162.69;5063926;28;20395;-76
2022/11/13 11:20:46;;;;;;;24.17;14.18;;;;;;;9.79;58.33;95144.00;5086737;28;20044;-76
2022/11/13 11:23:46;;;;;;;22.58;13.75;;;;;;;9.72;57.86;95144.31;5074788;28;20027;-77
2022/11/13 11:26:20;;;;;;;24.13;14.10;;;;;;;9.86;57.51;95149.81;5070318;28;20032;-77
2022/11/13 11:28:58;;;;;;;23.15;12.88;;;;;;;9.78;57.31;95115.88;5083081;28;20413;-77
2022/11/13 11:31:29;;;;;;;23.88;13.80;;;;;;;9.73;57.30;95139.81;5080808;28;20024;-76
2022/11/13 11:34:12;;;;;;;24.80;14.55;;;;;;;9.70;57.91;95135.81;5089878;27;20028;-76
2022/11/13 11:36:56;;;;;;;23.95;13.15;;;;;;;9.47;57.84;95114.44;5078961;28;20441;-76
2022/11/13 11:39:26;;;;;;;21.88;13.50;;;;;;;9.55;58.08;95114.66;5090343;27;20082;-76